sensor_id;sensor_type;location;lat;lon;timestamp;P1;durP1;ratioP1;P2;durP2;ratioP2
21128;SDS011;10722;51.910;8.352;2022-07-09T00:01:43;1999.90;;;870.22;;
21128;SDS011;10722;51.910;8.352;2022-07-09T00:04:28;1999.90;;;890.55;;
21128;SDS011;10722;51.910;8.352;2022-07-09T00:07:13;1999.90;;;909.50;;
21128;SDS011;10722;51.910;8.352;2022-07-09T00:09:59;1999.90;;;941.03;;
21128;SDS011;10722;51.910;8.352;2022-07-09T00:12:44;1999.90;;;902.90;;
21128;SDS011;10722;51.910;8.352;2022-07-09T00:15:30;1999.90;;;916.83;;
21128;SDS011;10722;51.910;8.352;2022-07-09T00:18:15;1999.90;;;878.97;;
21128;SDS011;10722;51.910;8.352;2022-07-09T00:21:00;1999.90;;;897.92;;
21128;SDS011;10722;51.910;8.352;2022-07-09T00:23:46;1999.90;;;900.72;;
21128;SDS011;10722;51.910;8.352;2022-07-09T00:26:31;1999.90;;;899.42;;
21128;SDS011;10722;51.910;8.352;2022-07-09T00:29:17;1999.90;;;911.30;;
21128;SDS011;10722;51.910;8.352;2022-07-09T00:32:02;1999.90;;;978.63;;
21128;SDS011;10722;51.910;8.352;2022-07-09T00:34:48;1999.90;;;999.90;;
21128;SDS011;10722;51.910;8.352;2022-07-09T00:37:33;1999.90;;;997.35;;
21128;SDS011;10722;51.910;8.352;2022-07-09T00:40:19;1999.90;;;975.20;;
21128;SDS011;10722;51.910;8.352;2022-07-09T00:43:14;1999.90;;;998.38;;
21128;SDS011;10722;51.910;8.352;2022-07-09T00:46:00;1999.90;;;919.08;;
21128;SDS011;10722;51.910;8.352;2022-07-09T00:48:45;1999.90;;;999.90;;
21128;SDS011;10722;51.910;8.352;2022-07-09T00:51:31;1999.90;;;999.90;;
21128;SDS011;10722;51.910;8.352;2022-07-09T00:54:16;1999.90;;;995.75;;
21128;SDS011;10722;51.910;8.352;2022-07-09T00:57:03;1999.90;;;965.55;;
21128;SDS011;10722;51.910;8.352;2022-07-09T00:59:50;1999.90;;;819.45;;
21128;SDS011;10722;51.910;8.352;2022-07-09T01:02:36;1999.90;;;999.90;;
21128;SDS011;10722;51.910;8.352;2022-07-09T01:05:22;1999.90;;;921.42;;
21128;SDS011;10722;51.910;8.352;2022-07-09T01:08:07;1999.90;;;999.90;;
21128;SDS011;10722;51.910;8.352;2022-07-09T01:10:53;1999.90;;;984.08;;
21128;SDS011;10722;51.910;8.352;2022-07-09T01:13:39;1999.90;;;779.83;;
21128;SDS011;10722;51.910;8.352;2022-07-09T01:16:30;1999.90;;;910.03;;
21128;SDS011;10722;51.910;8.352;2022-07-09T01:19:16;1999.90;;;843.80;;
21128;SDS011;10722;51.910;8.352;2022-07-09T01:22:02;1999.90;;;999.90;;
21128;SDS011;10722;51.910;8.352;2022-07-09T01:24:51;1999.90;;;796.30;;
21128;SDS011;10722;51.910;8.352;2022-07-09T01:27:37;1999.90;;;999.90;;
21128;SDS011;10722;51.910;8.352;2022-07-09T01:30:25;1999.90;;;999.90;;
21128;SDS011;10722;51.910;8.352;2022-07-09T01:33:12;1999.90;;;735.15;;
21128;SDS011;10722;51.910;8.352;2022-07-09T01:35:57;1999.90;;;999.90;;
21128;SDS011;10722;51.910;8.352;2022-07-09T01:38:42;1999.90;;;999.90;;
21128;SDS011;10722;51.910;8.352;2022-07-09T01:41:28;1999.90;;;999.90;;
21128;SDS011;10722;51.910;8.352;2022-07-09T01:44:13;1999.90;;;943.10;;
21128;SDS011;10722;51.910;8.352;2022-07-09T01:46:58;1999.90;;;869.65;;
21128;SDS011;10722;51.910;8.352;2022-07-09T01:49:43;1999.90;;;999.90;;
21128;SDS011;10722;51.910;8.352;2022-07-09T01:52:29;1999.90;;;999.90;;
21128;SDS011;10722;51.910;8.352;2022-07-09T01:55:14;1999.90;;;926.95;;
21128;SDS011;10722;51.910;8.352;2022-07-09T01:58:00;1999.90;;;918.92;;
21128;SDS011;10722;51.910;8.352;2022-07-09T02:00:45;1999.90;;;993.75;;
21128;SDS011;10722;51.910;8.352;2022-07-09T02:03:30;1999.90;;;948.15;;
21128;SDS011;10722;51.910;8.352;2022-07-09T02:06:15;1999.90;;;999.90;;
21128;SDS011;10722;51.910;8.352;2022-07-09T02:09:01;1999.90;;;999.90;;
21128;SDS011;10722;51.910;8.352;2022-07-09T02:11:46;1999.90;;;900.00;;
21128;SDS011;10722;51.910;8.352;2022-07-09T02:14:32;1999.90;;;804.50;;
21128;SDS011;10722;51.910;8.352;2022-07-09T02:17:17;1999.90;;;854.85;;
21128;SDS011;10722;51.910;8.352;2022-07-09T02:20:03;1999.90;;;894.10;;
21128;SDS011;10722;51.910;8.352;2022-07-09T02:22:48;1999.90;;;944.85;;
21128;SDS011;10722;51.910;8.352;2022-07-09T02:25:34;1999.90;;;909.33;;
21128;SDS011;10722;51.910;8.352;2022-07-09T02:28:19;1999.90;;;893.03;;
21128;SDS011;10722;51.910;8.352;2022-07-09T02:31:04;1999.90;;;848.33;;
21128;SDS011;10722;51.910;8.352;2022-07-09T02:33:49;1999.90;;;908.63;;
21128;SDS011;10722;51.910;8.352;2022-07-09T02:36:35;1999.90;;;937.33;;
21128;SDS011;10722;51.910;8.352;2022-07-09T02:39:20;1999.90;;;940.25;;
21128;SDS011;10722;51.910;8.352;2022-07-09T02:42:06;1999.90;;;842.90;;
21128;SDS011;10722;51.910;8.352;2022-07-09T02:44:51;1999.90;;;945.40;;
21128;SDS011;10722;51.910;8.352;2022-07-09T02:47:36;1999.90;;;936.92;;
21128;SDS011;10722;51.910;8.352;2022-07-09T02:50:22;1999.90;;;859.08;;
21128;SDS011;10722;51.910;8.352;2022-07-09T02:53:07;1999.90;;;909.58;;
21128;SDS011;10722;51.910;8.352;2022-07-09T02:55:53;1999.90;;;899.30;;
21128;SDS011;10722;51.910;8.352;2022-07-09T02:58:38;1999.90;;;999.90;;
21128;SDS011;10722;51.910;8.352;2022-07-09T03:01:23;1999.90;;;875.63;;
21128;SDS011;10722;51.910;8.352;2022-07-09T03:04:09;1999.90;;;895.22;;
21128;SDS011;10722;51.910;8.352;2022-07-09T03:06:54;1999.90;;;892.53;;
21128;SDS011;10722;51.910;8.352;2022-07-09T03:09:40;1999.90;;;944.75;;
21128;SDS011;10722;51.910;8.352;2022-07-09T03:12:25;1999.90;;;922.35;;
21128;SDS011;10722;51.910;8.352;2022-07-09T03:15:10;1999.90;;;866.00;;
21128;SDS011;10722;51.910;8.352;2022-07-09T03:17:56;1999.90;;;945.15;;
21128;SDS011;10722;51.910;8.352;2022-07-09T03:20:41;1999.90;;;881.22;;
21128;SDS011;10722;51.910;8.352;2022-07-09T03:23:27;1999.90;;;884.08;;
21128;SDS011;10722;51.910;8.352;2022-07-09T03:26:12;1999.90;;;897.35;;
21128;SDS011;10722;51.910;8.352;2022-07-09T03:28:57;1999.90;;;962.72;;
21128;SDS011;10722;51.910;8.352;2022-07-09T03:31:42;1999.90;;;915.10;;
21128;SDS011;10722;51.910;8.352;2022-07-09T03:34:28;1999.90;;;902.80;;
21128;SDS011;10722;51.910;8.352;2022-07-09T03:37:13;1999.90;;;933.75;;
21128;SDS011;10722;51.910;8.352;2022-07-09T03:39:58;1999.90;;;966.97;;
21128;SDS011;10722;51.910;8.352;2022-07-09T03:42:44;1999.90;;;902.83;;
21128;SDS011;10722;51.910;8.352;2022-07-09T03:45:29;1999.90;;;843.42;;
21128;SDS011;10722;51.910;8.352;2022-07-09T03:48:15;1999.90;;;920.75;;
21128;SDS011;10722;51.910;8.352;2022-07-09T03:50:59;1999.90;;;861.80;;
21128;SDS011;10722;51.910;8.352;2022-07-09T03:53:45;1999.90;;;898.40;;
21128;SDS011;10722;51.910;8.352;2022-07-09T03:56:30;1999.90;;;965.60;;
21128;SDS011;10722;51.910;8.352;2022-07-09T03:59:16;1999.90;;;986.85;;
21128;SDS011;10722;51.910;8.352;2022-07-09T04:02:01;1999.90;;;949.42;;
21128;SDS011;10722;51.910;8.352;2022-07-09T04:04:47;1999.90;;;943.30;;
21128;SDS011;10722;51.910;8.352;2022-07-09T04:07:32;1999.90;;;947.03;;
21128;SDS011;10722;51.910;8.352;2022-07-09T04:10:17;1999.90;;;898.92;;
21128;SDS011;10722;51.910;8.352;2022-07-09T04:13:03;1999.90;;;948.35;;
21128;SDS011;10722;51.910;8.352;2022-07-09T04:15:48;1999.90;;;898.80;;
21128;SDS011;10722;51.910;8.352;2022-07-09T04:18:34;1999.90;;;897.63;;
21128;SDS011;10722;51.910;8.352;2022-07-09T04:21:20;1999.90;;;946.30;;
21128;SDS011;10722;51.910;8.352;2022-07-09T04:24:05;1999.90;;;871.55;;
21128;SDS011;10722;51.910;8.352;2022-07-09T04:26:51;1999.90;;;941.55;;
21128;SDS011;10722;51.910;8.352;2022-07-09T04:29:36;1999.90;;;836.45;;
21128;SDS011;10722;51.910;8.352;2022-07-09T04:32:21;1999.90;;;794.83;;
21128;SDS011;10722;51.910;8.352;2022-07-09T04:35:06;1999.90;;;936.55;;
21128;SDS011;10722;51.910;8.352;2022-07-09T04:37:51;1999.90;;;961.75;;
21128;SDS011;10722;51.910;8.352;2022-07-09T04:40:36;1999.90;;;969.17;;
21128;SDS011;10722;51.910;8.352;2022-07-09T04:43:22;1999.90;;;999.08;;
21128;SDS011;10722;51.910;8.352;2022-07-09T04:46:07;1999.90;;;995.60;;
21128;SDS011;10722;51.910;8.352;2022-07-09T04:48:53;1999.90;;;937.40;;
21128;SDS011;10722;51.910;8.352;2022-07-09T04:51:38;1999.90;;;908.03;;
21128;SDS011;10722;51.910;8.352;2022-07-09T04:54:23;1999.90;;;924.10;;
21128;SDS011;10722;51.910;8.352;2022-07-09T04:57:08;1999.90;;;956.72;;
21128;SDS011;10722;51.910;8.352;2022-07-09T04:59:57;1999.90;;;943.67;;
21128;SDS011;10722;51.910;8.352;2022-07-09T05:02:43;1999.90;;;978.50;;
21128;SDS011;10722;51.910;8.352;2022-07-09T05:05:29;1999.90;;;997.83;;
21128;SDS011;10722;51.910;8.352;2022-07-09T05:08:15;1999.90;;;998.05;;
21128;SDS011;10722;51.910;8.352;2022-07-09T05:11:00;1999.90;;;999.90;;
21128;SDS011;10722;51.910;8.352;2022-07-09T05:13:45;1999.90;;;876.40;;
21128;SDS011;10722;51.910;8.352;2022-07-09T05:16:30;1999.90;;;965.25;;
21128;SDS011;10722;51.910;8.352;2022-07-09T05:19:16;1999.90;;;978.72;;
21128;SDS011;10722;51.910;8.352;2022-07-09T05:22:01;1999.90;;;999.90;;
21128;SDS011;10722;51.910;8.352;2022-07-09T05:24:46;1999.90;;;999.90;;
21128;SDS011;10722;51.910;8.352;2022-07-09T05:27:32;1999.90;;;965.67;;
21128;SDS011;10722;51.910;8.352;2022-07-09T05:30:24;1999.90;;;999.90;;
21128;SDS011;10722;51.910;8.352;2022-07-09T05:33:09;1999.90;;;999.90;;
21128;SDS011;10722;51.910;8.352;2022-07-09T05:35:54;1999.90;;;955.13;;
21128;SDS011;10722;51.910;8.352;2022-07-09T05:38:40;1999.90;;;962.00;;
21128;SDS011;10722;51.910;8.352;2022-07-09T05:41:25;1999.90;;;999.90;;
21128;SDS011;10722;51.910;8.352;2022-07-09T05:44:11;1999.90;;;999.90;;
21128;SDS011;10722;51.910;8.352;2022-07-09T05:47:00;1999.90;;;999.90;;
21128;SDS011;10722;51.910;8.352;2022-07-09T05:49:44;1999.90;;;999.90;;
21128;SDS011;10722;51.910;8.352;2022-07-09T05:52:29;1999.90;;;999.90;;
21128;SDS011;10722;51.910;8.352;2022-07-09T05:55:14;1999.90;;;999.90;;
21128;SDS011;10722;51.910;8.352;2022-07-09T05:58:00;1999.90;;;999.90;;
21128;SDS011;10722;51.910;8.352;2022-07-09T06:00:45;1999.90;;;999.90;;
21128;SDS011;10722;51.910;8.352;2022-07-09T06:03:31;1999.90;;;981.25;;
21128;SDS011;10722;51.910;8.352;2022-07-09T06:06:16;1999.90;;;999.90;;
21128;SDS011;10722;51.910;8.352;2022-07-09T06:09:01;1999.90;;;999.90;;
21128;SDS011;10722;51.910;8.352;2022-07-09T06:11:47;1999.90;;;983.03;;
21128;SDS011;10722;51.910;8.352;2022-07-09T06:14:32;1999.90;;;999.90;;
21128;SDS011;10722;51.910;8.352;2022-07-09T06:17:17;1999.90;;;969.85;;
21128;SDS011;10722;51.910;8.352;2022-07-09T06:20:04;1999.90;;;968.08;;
21128;SDS011;10722;51.910;8.352;2022-07-09T06:22:50;1999.90;;;944.13;;
21128;SDS011;10722;51.910;8.352;2022-07-09T06:25:35;1999.90;;;996.42;;
21128;SDS011;10722;51.910;8.352;2022-07-09T06:28:21;1999.90;;;944.70;;
21128;SDS011;10722;51.910;8.352;2022-07-09T06:31:06;1999.90;;;920.58;;
21128;SDS011;10722;51.910;8.352;2022-07-09T06:33:51;1999.90;;;834.97;;
21128;SDS011;10722;51.910;8.352;2022-07-09T06:36:44;1999.90;;;847.00;;
21128;SDS011;10722;51.910;8.352;2022-07-09T06:39:29;1999.90;;;910.42;;
21128;SDS011;10722;51.910;8.352;2022-07-09T06:42:16;1999.90;;;819.25;;
21128;SDS011;10722;51.910;8.352;2022-07-09T06:45:02;1999.90;;;861.42;;
21128;SDS011;10722;51.910;8.352;2022-07-09T06:47:48;1999.90;;;865.55;;
21128;SDS011;10722;51.910;8.352;2022-07-09T06:50:33;1999.90;;;876.88;;
21128;SDS011;10722;51.910;8.352;2022-07-09T06:53:18;1912.82;;;803.38;;
21128;SDS011;10722;51.910;8.352;2022-07-09T06:56:04;1933.72;;;777.92;;
21128;SDS011;10722;51.910;8.352;2022-07-09T06:58:50;1978.50;;;735.67;;
21128;SDS011;10722;51.910;8.352;2022-07-09T07:01:35;1915.57;;;674.17;;
21128;SDS011;10722;51.910;8.352;2022-07-09T07:04:20;1496.47;;;612.83;;
21128;SDS011;10722;51.910;8.352;2022-07-09T07:07:06;1414.50;;;669.88;;
21128;SDS011;10722;51.910;8.352;2022-07-09T07:09:51;1530.00;;;621.50;;
21128;SDS011;10722;51.910;8.352;2022-07-09T07:12:36;1664.30;;;719.80;;
21128;SDS011;10722;51.910;8.352;2022-07-09T07:15:21;1368.75;;;604.38;;
21128;SDS011;10722;51.910;8.352;2022-07-09T07:18:07;947.97;;;472.63;;
21128;SDS011;10722;51.910;8.352;2022-07-09T07:20:52;1757.32;;;684.47;;
21128;SDS011;10722;51.910;8.352;2022-07-09T07:23:38;1253.95;;;616.58;;
21128;SDS011;10722;51.910;8.352;2022-07-09T07:26:23;1026.38;;;504.98;;
21128;SDS011;10722;51.910;8.352;2022-07-09T07:29:08;578.25;;;377.80;;
21128;SDS011;10722;51.910;8.352;2022-07-09T07:31:56;455.08;;;318.98;;
21128;SDS011;10722;51.910;8.352;2022-07-09T07:34:42;357.77;;;257.52;;
21128;SDS011;10722;51.910;8.352;2022-07-09T07:37:27;920.22;;;381.20;;
21128;SDS011;10722;51.910;8.352;2022-07-09T07:40:12;752.47;;;369.73;;
21128;SDS011;10722;51.910;8.352;2022-07-09T07:42:58;222.30;;;155.48;;
21128;SDS011;10722;51.910;8.352;2022-07-09T07:45:43;110.68;;;95.95;;
21128;SDS011;10722;51.910;8.352;2022-07-09T07:48:29;35.35;;;30.92;;
21128;SDS011;10722;51.910;8.352;2022-07-09T07:51:14;28.77;;;23.65;;
21128;SDS011;10722;51.910;8.352;2022-07-09T07:54:00;12.52;;;4.18;;
21128;SDS011;10722;51.910;8.352;2022-07-09T07:56:45;12.65;;;5.03;;
21128;SDS011;10722;51.910;8.352;2022-07-09T07:59:30;17.92;;;12.73;;
21128;SDS011;10722;51.910;8.352;2022-07-09T08:02:16;15.57;;;9.00;;
21128;SDS011;10722;51.910;8.352;2022-07-09T08:05:01;15.93;;;11.05;;
21128;SDS011;10722;51.910;8.352;2022-07-09T08:07:46;13.88;;;11.32;;
21128;SDS011;10722;51.910;8.352;2022-07-09T08:10:31;9.13;;;5.35;;
21128;SDS011;10722;51.910;8.352;2022-07-09T08:13:20;10.30;;;3.72;;
21128;SDS011;10722;51.910;8.352;2022-07-09T08:16:05;16.50;;;11.52;;
21128;SDS011;10722;51.910;8.352;2022-07-09T08:18:51;11.57;;;6.88;;
21128;SDS011;10722;51.910;8.352;2022-07-09T08:21:37;27.88;;;21.15;;
21128;SDS011;10722;51.910;8.352;2022-07-09T08:24:22;90.68;;;75.63;;
21128;SDS011;10722;51.910;8.352;2022-07-09T08:27:07;832.22;;;515.03;;
21128;SDS011;10722;51.910;8.352;2022-07-09T08:29:53;1999.90;;;854.13;;
21128;SDS011;10722;51.910;8.352;2022-07-09T08:32:38;1999.90;;;979.00;;
21128;SDS011;10722;51.910;8.352;2022-07-09T08:35:23;1999.90;;;827.75;;
21128;SDS011;10722;51.910;8.352;2022-07-09T08:38:08;1999.90;;;913.00;;
21128;SDS011;10722;51.910;8.352;2022-07-09T08:40:53;1999.90;;;823.13;;
21128;SDS011;10722;51.910;8.352;2022-07-09T08:43:40;1999.90;;;756.42;;
21128;SDS011;10722;51.910;8.352;2022-07-09T08:46:27;1908.13;;;782.75;;
21128;SDS011;10722;51.910;8.352;2022-07-09T08:49:12;1999.90;;;868.55;;
21128;SDS011;10722;51.910;8.352;2022-07-09T08:51:59;1999.90;;;990.33;;
21128;SDS011;10722;51.910;8.352;2022-07-09T08:54:47;1826.80;;;848.83;;
21128;SDS011;10722;51.910;8.352;2022-07-09T08:57:33;1718.50;;;605.50;;
21128;SDS011;10722;51.910;8.352;2022-07-09T09:00:18;213.15;;;131.45;;
21128;SDS011;10722;51.910;8.352;2022-07-09T09:03:05;146.52;;;116.93;;
21128;SDS011;10722;51.910;8.352;2022-07-09T09:06:03;18.85;;;16.60;;
21128;SDS011;10722;51.910;8.352;2022-07-09T09:08:55;74.80;;;67.88;;
21128;SDS011;10722;51.910;8.352;2022-07-09T09:11:41;50.47;;;45.30;;
21128;SDS011;10722;51.910;8.352;2022-07-09T09:14:26;67.93;;;61.67;;
21128;SDS011;10722;51.910;8.352;2022-07-09T09:17:21;30.23;;;24.83;;
21128;SDS011;10722;51.910;8.352;2022-07-09T09:20:11;28.08;;;23.05;;
21128;SDS011;10722;51.910;8.352;2022-07-09T09:22:57;182.98;;;163.75;;
21128;SDS011;10722;51.910;8.352;2022-07-09T09:25:42;37.00;;;33.80;;
21128;SDS011;10722;51.910;8.352;2022-07-09T09:28:28;14.63;;;12.45;;
21128;SDS011;10722;51.910;8.352;2022-07-09T09:31:20;47.20;;;42.65;;
21128;SDS011;10722;51.910;8.352;2022-07-09T09:34:23;50.45;;;45.70;;
21128;SDS011;10722;51.910;8.352;2022-07-09T09:37:09;141.23;;;127.30;;
21128;SDS011;10722;51.910;8.352;2022-07-09T09:39:54;22.40;;;20.13;;
21128;SDS011;10722;51.910;8.352;2022-07-09T09:42:40;54.58;;;45.92;;
21128;SDS011;10722;51.910;8.352;2022-07-09T09:45:26;61.10;;;55.40;;
21128;SDS011;10722;51.910;8.352;2022-07-09T09:48:12;36.50;;;33.45;;
21128;SDS011;10722;51.910;8.352;2022-07-09T09:51:00;178.45;;;159.52;;
21128;SDS011;10722;51.910;8.352;2022-07-09T09:53:45;12.98;;;10.95;;
21128;SDS011;10722;51.910;8.352;2022-07-09T09:56:32;27.20;;;24.50;;
21128;SDS011;10722;51.910;8.352;2022-07-09T09:59:17;40.85;;;37.00;;
21128;SDS011;10722;51.910;8.352;2022-07-09T10:02:03;125.53;;;109.22;;
21128;SDS011;10722;51.910;8.352;2022-07-09T10:04:50;64.57;;;57.97;;
21128;SDS011;10722;51.910;8.352;2022-07-09T10:07:34;14.30;;;9.15;;
21128;SDS011;10722;51.910;8.352;2022-07-09T10:10:20;21.20;;;18.98;;
21128;SDS011;10722;51.910;8.352;2022-07-09T10:13:05;7.20;;;2.00;;
21128;SDS011;10722;51.910;8.352;2022-07-09T10:15:50;4.97;;;1.83;;
21128;SDS011;10722;51.910;8.352;2022-07-09T10:18:35;5.70;;;2.03;;
21128;SDS011;10722;51.910;8.352;2022-07-09T10:21:38;19.33;;;17.40;;
21128;SDS011;10722;51.910;8.352;2022-07-09T10:24:25;9.65;;;1.90;;
21128;SDS011;10722;51.910;8.352;2022-07-09T10:27:15;5.53;;;2.00;;
21128;SDS011;10722;51.910;8.352;2022-07-09T10:30:04;5.65;;;2.25;;
21128;SDS011;10722;51.910;8.352;2022-07-09T10:35:57;4.18;;;1.80;;
21128;SDS011;10722;51.910;8.352;2022-07-09T10:38:51;6.88;;;2.67;;
21128;SDS011;10722;51.910;8.352;2022-07-09T10:41:38;11.35;;;7.82;;
21128;SDS011;10722;51.910;8.352;2022-07-09T10:44:27;5.68;;;3.10;;
21128;SDS011;10722;51.910;8.352;2022-07-09T10:47:13;14.23;;;9.55;;
21128;SDS011;10722;51.910;8.352;2022-07-09T10:50:02;8.57;;;3.70;;
21128;SDS011;10722;51.910;8.352;2022-07-09T10:52:50;8.30;;;2.28;;
21128;SDS011;10722;51.910;8.352;2022-07-09T10:55:36;8.10;;;2.20;;
21128;SDS011;10722;51.910;8.352;2022-07-09T10:58:23;6.00;;;2.00;;
21128;SDS011;10722;51.910;8.352;2022-07-09T11:01:19;8.93;;;2.17;;
21128;SDS011;10722;51.910;8.352;2022-07-09T11:04:05;5.60;;;1.70;;
21128;SDS011;10722;51.910;8.352;2022-07-09T11:06:50;5.57;;;1.48;;
21128;SDS011;10722;51.910;8.352;2022-07-09T11:09:35;4.35;;;1.70;;
21128;SDS011;10722;51.910;8.352;2022-07-09T11:12:21;3.55;;;1.60;;
21128;SDS011;10722;51.910;8.352;2022-07-09T11:15:07;7.82;;;1.83;;
21128;SDS011;10722;51.910;8.352;2022-07-09T11:18:06;9.50;;;1.80;;
21128;SDS011;10722;51.910;8.352;2022-07-09T11:20:51;7.78;;;1.77;;
21128;SDS011;10722;51.910;8.352;2022-07-09T11:23:36;7.40;;;1.80;;
21128;SDS011;10722;51.910;8.352;2022-07-09T11:26:21;8.18;;;2.00;;
21128;SDS011;10722;51.910;8.352;2022-07-09T11:29:07;6.28;;;1.80;;
21128;SDS011;10722;51.910;8.352;2022-07-09T11:31:53;5.22;;;1.75;;
21128;SDS011;10722;51.910;8.352;2022-07-09T11:34:38;5.20;;;1.70;;
21128;SDS011;10722;51.910;8.352;2022-07-09T11:37:34;8.93;;;1.75;;
21128;SDS011;10722;51.910;8.352;2022-07-09T11:40:19;7.18;;;1.80;;
21128;SDS011;10722;51.910;8.352;2022-07-09T11:43:12;6.93;;;1.80;;
21128;SDS011;10722;51.910;8.352;2022-07-09T11:46:00;3.97;;;1.63;;
21128;SDS011;10722;51.910;8.352;2022-07-09T11:48:49;6.68;;;1.70;;
21128;SDS011;10722;51.910;8.352;2022-07-09T11:51:38;7.53;;;2.00;;
21128;SDS011;10722;51.910;8.352;2022-07-09T11:54:27;5.85;;;1.70;;
21128;SDS011;10722;51.910;8.352;2022-07-09T11:57:19;6.07;;;1.50;;
21128;SDS011;10722;51.910;8.352;2022-07-09T12:00:07;5.40;;;1.40;;
21128;SDS011;10722;51.910;8.352;2022-07-09T12:03:05;5.32;;;1.80;;
21128;SDS011;10722;51.910;8.352;2022-07-09T12:05:50;3.05;;;1.35;;
21128;SDS011;10722;51.910;8.352;2022-07-09T12:08:36;5.25;;;1.48;;
21128;SDS011;10722;51.910;8.352;2022-07-09T12:11:28;5.93;;;1.52;;
21128;SDS011;10722;51.910;8.352;2022-07-09T12:14:14;6.85;;;1.52;;
21128;SDS011;10722;51.910;8.352;2022-07-09T12:16:59;5.82;;;1.65;;
21128;SDS011;10722;51.910;8.352;2022-07-09T12:19:44;5.28;;;1.50;;
21128;SDS011;10722;51.910;8.352;2022-07-09T12:22:30;4.60;;;1.30;;
21128;SDS011;10722;51.910;8.352;2022-07-09T12:25:15;7.38;;;1.50;;
21128;SDS011;10722;51.910;8.352;2022-07-09T12:28:01;4.07;;;1.38;;
21128;SDS011;10722;51.910;8.352;2022-07-09T12:30:46;4.88;;;1.50;;
21128;SDS011;10722;51.910;8.352;2022-07-09T12:33:31;6.60;;;1.48;;
21128;SDS011;10722;51.910;8.352;2022-07-09T12:36:17;4.00;;;1.33;;
21128;SDS011;10722;51.910;8.352;2022-07-09T12:39:22;5.70;;;1.63;;
21128;SDS011;10722;51.910;8.352;2022-07-09T12:42:07;4.03;;;1.27;;
21128;SDS011;10722;51.910;8.352;2022-07-09T12:44:55;9.18;;;1.48;;
21128;SDS011;10722;51.910;8.352;2022-07-09T12:47:40;4.05;;;1.30;;
21128;SDS011;10722;51.910;8.352;2022-07-09T12:50:26;3.17;;;1.13;;
21128;SDS011;10722;51.910;8.352;2022-07-09T12:53:11;3.75;;;1.35;;
21128;SDS011;10722;51.910;8.352;2022-07-09T12:55:56;7.85;;;2.15;;
21128;SDS011;10722;51.910;8.352;2022-07-09T12:58:47;4.32;;;1.38;;
21128;SDS011;10722;51.910;8.352;2022-07-09T13:01:32;5.10;;;1.20;;
21128;SDS011;10722;51.910;8.352;2022-07-09T13:04:17;3.80;;;1.10;;
21128;SDS011;10722;51.910;8.352;2022-07-09T13:07:03;4.75;;;1.30;;
21128;SDS011;10722;51.910;8.352;2022-07-09T13:09:48;6.85;;;1.40;;
21128;SDS011;10722;51.910;8.352;2022-07-09T13:12:34;5.35;;;1.23;;
21128;SDS011;10722;51.910;8.352;2022-07-09T13:15:18;5.05;;;1.38;;
21128;SDS011;10722;51.910;8.352;2022-07-09T13:18:03;6.00;;;1.30;;
21128;SDS011;10722;51.910;8.352;2022-07-09T13:20:49;4.72;;;1.27;;
21128;SDS011;10722;51.910;8.352;2022-07-09T13:23:34;5.47;;;1.00;;
21128;SDS011;10722;51.910;8.352;2022-07-09T13:26:20;4.68;;;1.10;;
21128;SDS011;10722;51.910;8.352;2022-07-09T13:29:06;3.47;;;1.27;;
21128;SDS011;10722;51.910;8.352;2022-07-09T13:31:50;4.88;;;1.15;;
21128;SDS011;10722;51.910;8.352;2022-07-09T13:34:36;2.65;;;0.90;;
21128;SDS011;10722;51.910;8.352;2022-07-09T13:37:21;1.77;;;0.82;;
21128;SDS011;10722;51.910;8.352;2022-07-09T13:40:07;7.72;;;1.17;;
21128;SDS011;10722;51.910;8.352;2022-07-09T13:42:53;4.68;;;1.00;;
21128;SDS011;10722;51.910;8.352;2022-07-09T13:45:38;3.15;;;1.17;;
21128;SDS011;10722;51.910;8.352;2022-07-09T13:48:23;6.40;;;1.15;;
21128;SDS011;10722;51.910;8.352;2022-07-09T13:51:09;4.63;;;1.30;;
21128;SDS011;10722;51.910;8.352;2022-07-09T13:53:54;4.20;;;1.25;;
21128;SDS011;10722;51.910;8.352;2022-07-09T13:56:39;4.63;;;1.10;;
21128;SDS011;10722;51.910;8.352;2022-07-09T13:59:24;4.30;;;1.10;;
21128;SDS011;10722;51.910;8.352;2022-07-09T14:02:09;5.85;;;1.45;;
21128;SDS011;10722;51.910;8.352;2022-07-09T14:04:55;3.20;;;0.95;;
21128;SDS011;10722;51.910;8.352;2022-07-09T14:07:40;4.10;;;0.90;;
21128;SDS011;10722;51.910;8.352;2022-07-09T14:10:25;3.75;;;1.30;;
21128;SDS011;10722;51.910;8.352;2022-07-09T14:13:10;2.50;;;1.10;;
21128;SDS011;10722;51.910;8.352;2022-07-09T14:15:56;5.90;;;1.00;;
21128;SDS011;10722;51.910;8.352;2022-07-09T14:18:42;5.03;;;1.23;;
21128;SDS011;10722;51.910;8.352;2022-07-09T14:21:28;3.75;;;1.20;;
21128;SDS011;10722;51.910;8.352;2022-07-09T14:24:13;3.47;;;1.17;;
21128;SDS011;10722;51.910;8.352;2022-07-09T14:26:59;3.83;;;1.30;;
21128;SDS011;10722;51.910;8.352;2022-07-09T14:29:45;4.30;;;1.40;;
21128;SDS011;10722;51.910;8.352;2022-07-09T14:32:30;5.20;;;1.13;;
21128;SDS011;10722;51.910;8.352;2022-07-09T14:35:15;3.10;;;1.33;;
21128;SDS011;10722;51.910;8.352;2022-07-09T14:38:01;4.88;;;1.27;;
21128;SDS011;10722;51.910;8.352;2022-07-09T14:40:46;5.10;;;1.33;;
21128;SDS011;10722;51.910;8.352;2022-07-09T14:43:33;4.18;;;1.42;;
21128;SDS011;10722;51.910;8.352;2022-07-09T14:46:18;7.22;;;1.52;;
21128;SDS011;10722;51.910;8.352;2022-07-09T14:49:04;5.28;;;1.38;;
21128;SDS011;10722;51.910;8.352;2022-07-09T14:51:49;4.15;;;1.40;;
21128;SDS011;10722;51.910;8.352;2022-07-09T14:54:34;3.45;;;1.20;;
21128;SDS011;10722;51.910;8.352;2022-07-09T14:57:20;3.42;;;1.10;;
21128;SDS011;10722;51.910;8.352;2022-07-09T15:00:05;2.90;;;1.17;;
21128;SDS011;10722;51.910;8.352;2022-07-09T15:02:51;7.97;;;1.30;;
21128;SDS011;10722;51.910;8.352;2022-07-09T15:05:36;5.30;;;1.52;;
21128;SDS011;10722;51.910;8.352;2022-07-09T15:08:27;4.75;;;1.45;;
21128;SDS011;10722;51.910;8.352;2022-07-09T15:11:13;5.20;;;1.48;;
21128;SDS011;10722;51.910;8.352;2022-07-09T15:13:59;5.25;;;1.48;;
21128;SDS011;10722;51.910;8.352;2022-07-09T15:16:43;6.07;;;1.50;;
21128;SDS011;10722;51.910;8.352;2022-07-09T15:19:29;3.70;;;1.33;;
21128;SDS011;10722;51.910;8.352;2022-07-09T15:22:14;5.18;;;1.50;;
21128;SDS011;10722;51.910;8.352;2022-07-09T15:24:59;6.13;;;1.30;;
21128;SDS011;10722;51.910;8.352;2022-07-09T15:27:45;12.98;;;1.63;;
21128;SDS011;10722;51.910;8.352;2022-07-09T15:30:30;4.70;;;1.65;;
21128;SDS011;10722;51.910;8.352;2022-07-09T15:33:16;5.80;;;1.38;;
21128;SDS011;10722;51.910;8.352;2022-07-09T15:36:01;9.40;;;1.50;;
21128;SDS011;10722;51.910;8.352;2022-07-09T15:38:47;6.32;;;1.50;;
21128;SDS011;10722;51.910;8.352;2022-07-09T15:41:32;7.53;;;1.42;;
21128;SDS011;10722;51.910;8.352;2022-07-09T15:44:17;6.93;;;1.40;;
21128;SDS011;10722;51.910;8.352;2022-07-09T15:47:02;9.50;;;1.58;;
21128;SDS011;10722;51.910;8.352;2022-07-09T15:49:47;10.15;;;1.67;;
21128;SDS011;10722;51.910;8.352;2022-07-09T15:52:33;8.25;;;1.60;;
21128;SDS011;10722;51.910;8.352;2022-07-09T15:55:22;6.07;;;1.60;;
21128;SDS011;10722;51.910;8.352;2022-07-09T15:58:07;9.93;;;1.90;;
21128;SDS011;10722;51.910;8.352;2022-07-09T16:00:52;6.50;;;1.63;;
21128;SDS011;10722;51.910;8.352;2022-07-09T16:03:38;9.85;;;1.90;;